aviador You're here:

EPKT Decoded Metar

KATOWICE in POLAND
Report Time2018-05-23 20:30:00
UTC Time2018-05-23 20:42:33
Flight Rules vfr VFR
Wind060° at 08 kt
W.Decomp.*RWY 09: 6.6 kt HW 4.5 kt LCW
W.Rank060° ranks 18
Current wind is above 060° avg. (5.3)
Visibility9999 m
Phenomena:N/A
Clouds:N/A
Expected CloudBase > 1,600 ft AGL from Temp-Dew spread
CeilingNone
Temp17°C (ISA +4)
Dew Point13°C (77% RH)
AAT15.0°C
QNH1021 hPa
Density Alt1,319 ft
Elevation932 ft
Report Wrong Elevation
Raw Report
EPKT 232030Z 06008KT CAVOK 17/13 Q1021=

Extra information for EPKT:More info

Metar Taf Metar & Taf Last 4 Metars F.Rules Stats Wind Profile Meteogram Temp Stats Airport Information Weather charts Add Link Nearby VenuesMetar ALERT Operation Metar Decoded Social comments